Time;durP1;ratioP1;P1;durP2;ratioP2;P2;SDS_P1;SDS_P2;PMS_P1;PMS_P2;Temp;Humidity;BMP_temperature;BMP_pressure;BME280_temperature;BME280_humidity;BME280_pressure;Samples;Min_cycle;Max_cycle;Signal;HPM_P1;HPM_P2
2024/01/08 00:02:15;;;;;;;1.65;1.55;;;;;-0.20;99022.00;;;;5075641;28;20045;-64
2024/01/08 00:04:41;;;;;;;1.80;1.58;;;;;-0.30;99028.00;;;;5074790;28;20055;-63
2024/01/08 00:07:08;;;;;;;2.10;1.90;;;;;-0.40;99031.00;;;;5075476;28;20051;-64
2024/01/08 00:09:34;;;;;;;2.35;1.90;;;;;-0.20;99022.00;;;;5075571;28;20098;-64
2024/01/08 00:12:01;;;;;;;3.70;2.25;;;;;-0.40;99016.00;;;;5075482;28;20412;-63
2024/01/08 00:14:28;;;;;;;2.45;1.95;;;;;-0.40;99014.00;;;;5074811;28;20053;-63
2024/01/08 00:16:54;;;;;;;2.47;1.80;;;;;-0.30;99016.00;;;;5073949;28;20040;-64
2024/01/08 00:19:21;;;;;;;1.98;1.77;;;;;-0.30;99015.00;;;;5075274;28;20118;-64
2024/01/08 00:21:47;;;;;;;2.15;1.65;;;;;-0.30;99014.00;;;;5073951;28;20417;-64
2024/01/08 00:24:14;;;;;;;2.72;1.67;;;;;-0.10;99019.00;;;;5074656;28;20044;-64
2024/01/08 00:26:41;;;;;;;2.35;1.90;;;;;-0.30;99017.00;;;;5075116;28;20079;-64
2024/01/08 00:29:07;;;;;;;2.83;1.80;;;;;-0.20;99022.00;;;;5073887;28;20052;-60
2024/01/08 00:31:34;;;;;;;1.92;1.77;;;;;-0.20;99023.00;;;;5075095;28;20528;-65
2024/01/08 00:34:00;;;;;;;1.70;1.60;;;;;-0.10;99012.00;;;;5074592;28;20558;-62
2024/01/08 00:36:27;;;;;;;4.05;1.80;;;;;-0.10;99016.00;;;;5073755;28;20041;-62
2024/01/08 00:38:54;;;;;;;2.03;1.75;;;;;-0.20;99018.00;;;;5074820;28;20079;-63
2024/01/08 00:41:20;;;;;;;1.75;1.60;;;;;-0.30;99015.00;;;;5074908;28;20044;-62
2024/01/08 00:43:47;;;;;;;2.10;1.90;;;;;-0.10;99021.00;;;;5074182;28;20072;-62
2024/01/08 00:46:14;;;;;;;2.03;1.55;;;;;-0.20;99021.00;;;;5073399;28;20040;-62
2024/01/08 00:48:41;;;;;;;1.55;1.38;;;;;-0.20;99012.00;;;;5075229;28;20481;-62
2024/01/08 00:51:09;;;;;;;1.85;1.48;;;;;-0.20;99025.00;;;;5074677;28;20055;-62
2024/01/08 00:53:36;;;;;;;2.22;1.95;;;;;-0.20;99030.00;;;;5074315;28;20048;-62
2024/01/08 00:56:02;;;;;;;2.03;1.75;;;;;-0.30;99019.00;;;;5074547;28;20036;-62
2024/01/08 00:58:30;;;;;;;1.58;1.48;;;;;-0.20;99021.00;;;;5074513;28;20046;-62
2024/01/08 01:00:56;;;;;;;1.92;1.75;;;;;-0.30;99010.00;;;;5074309;28;20048;-61
2024/01/08 01:03:23;;;;;;;3.55;1.73;;;;;-0.40;99017.00;;;;5072804;28;20040;-61
2024/01/08 01:05:49;;;;;;;3.55;1.92;;;;;-0.30;99017.00;;;;5072498;28;20053;-62
2024/01/08 01:08:16;;;;;;;2.58;1.50;;;;;-0.10;99017.00;;;;5056356;28;20044;-62
2024/01/08 01:10:43;;;;;;;1.90;1.50;;;;;-0.20;99038.00;;;;5074238;28;20048;-62
2024/01/08 01:13:09;;;;;;;1.70;1.60;;;;;-0.20;99025.00;;;;5074318;28;20123;-62
2024/01/08 01:15:36;;;;;;;2.55;1.77;;;;;-0.20;99015.00;;;;5073587;28;20486;-62
2024/01/08 01:18:03;;;;;;;1.70;1.58;;;;;-0.30;99023.00;;;;5074030;28;20131;-62
2024/01/08 01:20:30;;;;;;;2.88;1.73;;;;;-0.30;99014.00;;;;5072835;28;20045;-62
2024/01/08 01:22:56;;;;;;;1.70;1.60;;;;;-0.30;99020.00;;;;5072874;28;20489;-62
2024/01/08 01:25:23;;;;;;;1.45;1.38;;;;;-0.30;99020.00;;;;5073405;28;20040;-60
2024/01/08 01:27:49;;;;;;;1.77;1.67;;;;;-0.20;99024.00;;;;5073814;28;20037;-62
2024/01/08 01:30:16;;;;;;;2.33;1.70;;;;;-0.20;99019.00;;;;5074052;28;20036;-60
2024/01/08 01:32:43;;;;;;;3.70;1.60;;;;;-0.20;99025.00;;;;5073940;28;20052;-60
2024/01/08 01:35:09;;;;;;;1.48;1.38;;;;;-0.20;99032.00;;;;5055356;28;20079;-60
2024/01/08 01:37:36;;;;;;;1.70;1.60;;;;;-0.10;99027.00;;;;5073699;28;20064;-60
2024/01/08 01:40:05;;;;;;;1.75;1.52;;;;;-0.20;99030.00;;;;5073870;28;20047;-60
2024/01/08 01:42:32;;;;;;;2.70;1.55;;;;;-0.10;99025.00;;;;5073807;28;20141;-61
2024/01/08 01:44:59;;;;;;;3.25;1.50;;;;;-0.20;99028.00;;;;5073017;28;20072;-61
2024/01/08 01:47:26;;;;;;;3.10;1.42;;;;;-0.30;99023.00;;;;5073555;28;20044;-60
2024/01/08 01:49:53;;;;;;;1.65;1.50;;;;;-0.20;99031.00;;;;5073475;28;20056;-63
2024/01/08 01:52:21;;;;;;;1.40;1.20;;;;;-0.20;99032.00;;;;5073479;28;20127;-61
2024/01/08 01:54:51;;;;;;;3.03;1.30;;;;;-0.30;99031.00;;;;5072931;28;20040;-61
2024/01/08 01:57:18;;;;;;;1.30;1.20;;;;;-0.30;99026.00;;;;5073252;28;20064;-60
2024/01/08 01:59:45;;;;;;;2.60;1.67;;;;;-0.20;99032.00;;;;5073274;28;20119;-61
2024/01/08 02:02:14;;;;;;;1.55;1.42;;;;;-0.30;99032.00;;;;5073251;28;20090;-63
2024/01/08 02:04:41;;;;;;;1.10;1.10;;;;;-0.20;99033.00;;;;5072486;28;20041;-61
2024/01/08 02:07:08;;;;;;;1.95;1.60;;;;;-0.30;99023.00;;;;5073201;28;20044;-60
2024/01/08 02:09:35;;;;;;;2.13;1.50;;;;;-0.30;99027.00;;;;5072886;28;20076;-61
2024/01/08 02:12:02;;;;;;;2.55;1.35;;;;;-0.30;99030.00;;;;5071708;28;20090;-61
2024/01/08 02:14:29;;;;;;;3.38;1.50;;;;;-0.20;99029.00;;;;5072513;28;20040;-61
2024/01/08 02:16:55;;;;;;;1.60;1.50;;;;;-0.30;99018.00;;;;5072207;28;20123;-59
2024/01/08 02:19:22;;;;;;;3.25;1.65;;;;;-0.20;99028.00;;;;5073033;28;20040;-60
2024/01/08 02:21:49;;;;;;;2.35;1.48;;;;;-0.20;99023.00;;;;5072996;28;20052;-63
2024/01/08 02:24:16;;;;;;;3.75;1.67;;;;;-0.10;99013.00;;;;5070899;28;20409;-60
2024/01/08 02:26:42;;;;;;;1.30;1.20;;;;;-0.20;99011.00;;;;5071579;28;20090;-59
2024/01/08 02:29:09;;;;;;;1.50;1.40;;;;;-0.20;99016.00;;;;5071466;28;20056;-61
2024/01/08 02:31:36;;;;;;;1.40;1.30;;;;;-0.30;99012.00;;;;5072716;28;20048;-60
2024/01/08 02:34:02;;;;;;;3.03;1.45;;;;;-0.20;99023.00;;;;5071988;28;20456;-60
2024/01/08 02:36:29;;;;;;;2.17;1.38;;;;;-0.10;99023.00;;;;5072622;28;20090;-63
2024/01/08 02:38:55;;;;;;;1.33;1.23;;;;;-0.20;99021.00;;;;5072488;28;20375;-61
2024/01/08 02:41:22;;;;;;;1.95;1.50;;;;;-0.20;99008.00;;;;5072423;28;20128;-60
2024/01/08 02:43:49;;;;;;;1.58;1.42;;;;;-0.20;99011.00;;;;5071874;28;20128;-60
2024/01/08 02:46:15;;;;;;;1.40;1.20;;;;;-0.40;99013.00;;;;5072456;28;20040;-60
2024/01/08 02:48:42;;;;;;;1.25;1.13;;;;;-0.40;99007.00;;;;5072411;28;20044;-59
2024/01/08 02:51:09;;;;;;;1.95;1.60;;;;;-0.40;98998.00;;;;5072456;28;20040;-60
2024/01/08 02:53:36;;;;;;;3.65;1.15;;;;;-0.30;99003.00;;;;5071726;28;20052;-60
2024/01/08 02:56:03;;;;;;;1.42;1.33;;;;;-0.30;98997.00;;;;5072382;28;20051;-60
2024/01/08 02:58:29;;;;;;;2.45;1.40;;;;;-0.20;99007.00;;;;5071308;28;20047;-61
2024/01/08 03:00:56;;;;;;;2.05;1.45;;;;;-0.30;99003.00;;;;5072252;28;20044;-60
2024/01/08 03:03:23;;;;;;;2.08;1.42;;;;;-0.30;99012.00;;;;5070595;28;20049;-63
2024/01/08 03:05:49;;;;;;;1.50;1.27;;;;;-0.30;99001.00;;;;5071916;28;20044;-60
2024/01/08 03:08:16;;;;;;;3.08;1.85;;;;;-0.10;99010.00;;;;5072084;28;20051;-62
2024/01/08 03:10:42;;;;;;;2.28;1.90;;;;;-0.20;99012.00;;;;5072415;28;20486;-61
2024/01/08 03:13:09;;;;;;;1.73;1.40;;;;;-0.20;99014.00;;;;5071508;28;20148;-61
2024/01/08 03:15:35;;;;;;;2.03;1.52;;;;;-0.20;99007.00;;;;5072554;28;20119;-59
2024/01/08 03:18:02;;;;;;;2.47;1.52;;;;;-0.20;99011.00;;;;5072455;28;20454;-63
2024/01/08 03:20:29;;;;;;;1.45;1.35;;;;;-0.20;99018.00;;;;5073939;28;20541;-60
2024/01/08 03:22:56;;;;;;;1.50;1.40;;;;;-0.10;99004.00;;;;5074319;28;20045;-60
2024/01/08 03:25:22;;;;;;;1.80;1.50;;;;;-0.20;99004.00;;;;5072187;28;20090;-63
2024/01/08 03:27:49;;;;;;;1.63;1.40;;;;;-0.20;99008.00;;;;5071965;28;20044;-60
2024/01/08 03:30:15;;;;;;;1.92;1.65;;;;;-0.10;99012.00;;;;5073156;28;20120;-60
2024/01/08 03:32:42;;;;;;;2.35;1.48;;;;;-0.30;98999.00;;;;5075451;28;20041;-59
2024/01/08 03:35:10;;;;;;;2.17;1.40;;;;;-0.20;99006.00;;;;5078977;28;20049;-62
2024/01/08 03:37:37;;;;;;;1.73;1.63;;;;;-0.20;99014.00;;;;5082899;28;20045;-62
2024/01/08 03:40:06;;;;;;;2.03;1.50;;;;;-0.20;99001.00;;;;5087021;28;20074;-61
2024/01/08 03:42:32;;;;;;;1.85;1.45;;;;;-0.10;99012.00;;;;5081769;28;20044;-60
2024/01/08 03:44:59;;;;;;;2.30;1.40;;;;;-0.10;99008.00;;;;5080836;28;20124;-61
2024/01/08 03:47:26;;;;;;;2.08;1.60;;;;;-0.10;99013.00;;;;5079358;28;20045;-61
2024/01/08 03:49:55;;;;;;;1.52;1.40;;;;;-0.30;99010.00;;;;5082889;28;20048;-60
2024/01/08 03:52:24;;;;;;;2.03;1.52;;;;;-0.20;99021.00;;;;5081737;28;20049;-61
2024/01/08 03:54:51;;;;;;;1.65;1.52;;;;;-0.20;99013.00;;;;5081754;28;20056;-63
2024/01/08 03:57:18;;;;;;;1.50;1.40;;;;;-0.30;99020.00;;;;5080385;28;20047;-60
2024/01/08 03:59:45;;;;;;;1.98;1.60;;;;;-0.30;99017.00;;;;5075964;28;20044;-60
2024/01/08 04:02:13;;;;;;;1.83;1.50;;;;;-0.30;99017.00;;;;5056913;28;20535;-61
2024/01/08 04:04:42;;;;;;;2.03;1.70;;;;;-0.30;99021.00;;;;5077427;28;20127;-62
2024/01/08 04:07:11;;;;;;;1.95;1.73;;;;;-0.30;99009.00;;;;5078689;28;20136;-62
2024/01/08 04:09:39;;;;;;;1.75;1.63;;;;;-0.30;99014.00;;;;5079953;28;20137;-62
2024/01/08 04:12:06;;;;;;;1.67;1.45;;;;;-0.10;99018.00;;;;5083735;28;20078;-61
2024/01/08 04:14:33;;;;;;;2.17;1.38;;;;;-0.20;99016.00;;;;5083141;28;20056;-61
2024/01/08 04:17:04;;;;;;;2.20;1.80;;;;;-0.30;99014.00;;;;5085200;28;20119;-61
2024/01/08 04:19:30;;;;;;;1.60;1.50;;;;;-0.30;99017.00;;;;5066471;28;20055;-63
2024/01/08 04:21:57;;;;;;;2.75;1.52;;;;;-0.20;99023.00;;;;5086641;28;20109;-61
2024/01/08 04:24:24;;;;;;;3.60;1.90;;;;;-0.40;99009.00;;;;5076184;28;20188;-64
2024/01/08 04:26:51;;;;;;;17.92;9.07;;;;;-0.40;99035.00;;;;5072419;28;20064;-61
2024/01/08 04:29:17;;;;;;;16.20;8.00;;;;;-0.30;99023.00;;;;5071397;28;20379;-61
2024/01/08 04:31:44;;;;;;;4.50;1.95;;;;;-0.30;99020.00;;;;5072709;28;20041;-62
2024/01/08 04:34:11;;;;;;;1.60;1.50;;;;;-0.30;99019.00;;;;5072280;28;20045;-61
2024/01/08 04:36:43;;;;;;;2.17;1.70;;;;;-0.40;99042.00;;;;5072972;28;20060;-61
2024/01/08 04:39:11;;;;;;;1.75;1.60;;;;;-0.20;99026.00;;;;5071671;28;20060;-61
2024/01/08 04:41:37;;;;;;;1.70;1.60;;;;;-0.30;99032.00;;;;5074367;28;20401;-59
2024/01/08 04:44:07;;;;;;;2.03;1.40;;;;;-0.20;99036.00;;;;5074232;28;20040;-63
2024/01/08 04:46:33;;;;;;;2.25;1.60;;;;;-0.30;99044.00;;;;5075066;28;20119;-60
2024/01/08 04:49:00;;;;;;;3.17;1.50;;;;;-0.40;99040.00;;;;5074646;28;20511;-61
2024/01/08 04:51:27;;;;;;;7.25;2.78;;;;;-0.30;99043.00;;;;5074856;28;20387;-62
2024/01/08 04:53:53;;;;;;;2.33;2.08;;;;;-0.20;99043.00;;;;5074235;28;20119;-61
2024/01/08 04:56:24;;;;;;;5.97;1.88;;;;;-0.30;99048.00;;;;5074599;28;20071;-61
2024/01/08 04:58:52;;;;;;;2.28;2.05;;;;;-0.30;99038.00;;;;5074583;28;20063;-61
2024/01/08 05:01:19;;;;;;;4.57;2.08;;;;;-0.30;99043.00;;;;5074871;28;20055;-60
2024/01/08 05:03:46;;;;;;;2.63;1.83;;;;;-0.30;99035.00;;;;5073912;28;20124;-63
2024/01/08 05:06:13;;;;;;;3.30;1.95;;;;;-0.30;99040.00;;;;5074850;28;20075;-63
2024/01/08 05:08:40;;;;;;;2.85;2.00;;;;;-0.30;99052.00;;;;5074398;28;20071;-63
2024/01/08 05:11:07;;;;;;;2.53;2.00;;;;;-0.30;99048.00;;;;5074497;28;20493;-63
2024/01/08 05:13:35;;;;;;;2.25;2.03;;;;;-0.30;99038.00;;;;5073813;28;20055;-63
2024/01/08 05:16:01;;;;;;;4.30;2.55;;;;;-0.20;99050.00;;;;5074486;28;20040;-62
2024/01/08 05:18:28;;;;;;;2.83;2.03;;;;;-0.40;99041.00;;;;5074419;28;20086;-63
2024/01/08 05:20:55;;;;;;;1.98;1.77;;;;;-0.30;99040.00;;;;5074331;28;20048;-63
2024/01/08 05:23:22;;;;;;;2.30;1.85;;;;;-0.30;99044.00;;;;5072574;28;20048;-61
2024/01/08 05:25:49;;;;;;;3.53;2.35;;;;;-0.50;99043.00;;;;5074291;28;20067;-63
2024/01/08 05:28:16;;;;;;;2.60;2.10;;;;;-0.50;99043.00;;;;5074107;28;20040;-63
2024/01/08 05:30:42;;;;;;;2.38;1.50;;;;;-0.40;99052.00;;;;5074364;28;20070;-63
2024/01/08 05:33:09;;;;;;;2.00;1.80;;;;;-0.50;99042.00;;;;5072993;28;20055;-63
2024/01/08 05:35:37;;;;;;;1.90;1.80;;;;;-0.40;99048.00;;;;5073711;28;20052;-63
2024/01/08 05:38:04;;;;;;;2.72;1.80;;;;;-0.50;99056.00;;;;5074016;28;20052;-64
2024/01/08 05:40:31;;;;;;;3.13;1.75;;;;;-0.30;99051.00;;;;5072533;28;20118;-64
2024/01/08 05:42:57;;;;;;;2.70;1.90;;;;;-0.50;99056.00;;;;5073983;28;20048;-63
2024/01/08 05:45:24;;;;;;;3.90;2.10;;;;;-0.40;99056.00;;;;5072037;28;20082;-64
2024/01/08 05:47:51;;;;;;;2.50;1.88;;;;;-0.40;99057.00;;;;5073547;28;20040;-63
2024/01/08 05:50:19;;;;;;;2.08;1.55;;;;;-0.30;99062.00;;;;5073811;28;20055;-64
2024/01/08 05:52:46;;;;;;;22.95;12.73;;;;;-0.50;99047.00;;;;5073488;28;20049;-64
2024/01/08 05:55:14;;;;;;;3.45;2.50;;;;;-0.50;99042.00;;;;5073067;28;20436;-64
2024/01/08 05:57:40;;;;;;;2.53;2.03;;;;;-0.50;99051.00;;;;5073496;28;20055;-62
2024/01/08 06:00:07;;;;;;;2.72;1.98;;;;;-0.30;99058.00;;;;5073475;28;20043;-62
2024/01/08 06:02:34;;;;;;;1.88;1.67;;;;;-0.30;99047.00;;;;5073394;28;20106;-62
2024/01/08 06:05:01;;;;;;;3.40;2.05;;;;;-0.40;99062.00;;;;5072671;28;20464;-62
2024/01/08 06:07:28;;;;;;;2.45;2.05;;;;;-0.40;99055.00;;;;5073358;28;20044;-58
2024/01/08 06:09:55;;;;;;;3.17;2.30;;;;;-0.50;99063.00;;;;5073458;28;20424;-59
2024/01/08 06:12:21;;;;;;;2.58;2.17;;;;;-0.60;99051.00;;;;5073078;28;20040;-60
2024/01/08 06:14:49;;;;;;;2.58;1.88;;;;;-0.60;99059.00;;;;5072393;28;20127;-60
2024/01/08 06:17:17;;;;;;;2.33;1.95;;;;;-0.30;99081.00;;;;5072988;28;20036;-62
2024/01/08 06:19:43;;;;;;;3.55;2.22;;;;;-0.40;99081.00;;;;5071917;28;20397;-62
2024/01/08 06:22:10;;;;;;;3.00;2.17;;;;;-0.50;99058.00;;;;5073005;28;20048;-62
2024/01/08 06:24:36;;;;;;;2.35;1.95;;;;;-0.60;99072.00;;;;5072301;28;20094;-63
2024/01/08 06:27:03;;;;;;;2.95;2.08;;;;;-0.40;99062.00;;;;5072953;28;20525;-61
2024/01/08 06:29:30;;;;;;;2.90;2.22;;;;;-0.60;99069.00;;;;5072982;28;20072;-63
2024/01/08 06:31:57;;;;;;;3.00;2.28;;;;;-0.60;99071.00;;;;5072720;28;20041;-63
2024/01/08 06:34:23;;;;;;;3.03;2.33;;;;;-0.60;99068.00;;;;5072343;28;20052;-62
2024/01/08 06:36:50;;;;;;;2.75;2.05;;;;;-0.50;99066.00;;;;5072695;28;20049;-63
2024/01/08 06:39:17;;;;;;;2.30;2.10;;;;;-0.60;99068.00;;;;5072715;28;20040;-64
2024/01/08 06:41:44;;;;;;;3.25;2.22;;;;;-0.50;99066.00;;;;5071271;28;20139;-62
2024/01/08 06:44:10;;;;;;;4.32;2.47;;;;;-0.50;99060.00;;;;5071034;28;20041;-64
2024/01/08 06:46:37;;;;;;;3.20;2.22;;;;;-0.50;99059.00;;;;5072505;28;20139;-63
2024/01/08 06:49:04;;;;;;;3.25;2.35;;;;;-0.60;99063.00;;;;5072573;28;20062;-63
2024/01/08 06:51:30;;;;;;;3.35;1.98;;;;;-0.30;99062.00;;;;5072614;28;20405;-63
2024/01/08 06:53:57;;;;;;;2.05;1.83;;;;;-0.50;99063.00;;;;5071829;28;20044;-63
2024/01/08 06:56:23;;;;;;;3.35;2.33;;;;;-0.60;99059.00;;;;5072647;28;20051;-63
2024/01/08 06:58:50;;;;;;;4.10;2.30;;;;;-0.50;99061.00;;;;5072355;28;20040;-62
2024/01/08 07:01:17;;;;;;;3.28;2.70;;;;;-0.60;99072.00;;;;5071007;28;20489;-62
2024/01/08 07:03:44;;;;;;;2.92;2.25;;;;;-0.40;99060.00;;;;5070109;28;20048;-63
2024/01/08 07:06:11;;;;;;;2.90;2.15;;;;;-0.50;99062.00;;;;5072320;28;20463;-62
2024/01/08 07:08:38;;;;;;;2.72;2.08;;;;;-0.60;99071.00;;;;5072022;28;20050;-62
2024/01/08 07:11:04;;;;;;;3.05;2.72;;;;;-0.50;99065.00;;;;5072154;28;20132;-61
2024/01/08 07:13:31;;;;;;;3.92;2.20;;;;;-0.50;99069.00;;;;5071743;28;20068;-63
2024/01/08 07:15:58;;;;;;;3.35;2.63;;;;;-0.40;99060.00;;;;5072365;28;20391;-63
2024/01/08 07:18:24;;;;;;;2.88;2.20;;;;;-0.40;99073.00;;;;5072246;28;20047;-64
2024/01/08 07:20:51;;;;;;;2.40;2.15;;;;;-0.50;99069.00;;;;5071004;28;20045;-64
2024/01/08 07:23:18;;;;;;;4.40;2.58;;;;;-0.50;99071.00;;;;5071978;28;20072;-64
2024/01/08 07:25:45;;;;;;;2.67;2.20;;;;;-0.50;99077.00;;;;5071462;28;20040;-64
2024/01/08 07:28:13;;;;;;;2.45;2.25;;;;;-0.50;99081.00;;;;5071116;28;20040;-64
2024/01/08 07:30:39;;;;;;;2.95;2.60;;;;;-0.60;99080.00;;;;5070854;28;20547;-63
2024/01/08 07:33:06;;;;;;;3.03;2.40;;;;;-0.50;99081.00;;;;5071110;28;20046;-64
2024/01/08 07:35:34;;;;;;;2.95;2.60;;;;;-0.60;99082.00;;;;5071655;28;20505;-64
2024/01/08 07:38:00;;;;;;;3.10;2.25;;;;;-0.60;99089.00;;;;5070835;28;20058;-64
2024/01/08 07:40:27;;;;;;;5.63;2.53;;;;;-0.60;99083.00;;;;5072023;28;20056;-63
2024/01/08 07:42:55;;;;;;;4.15;2.30;;;;;-0.50;99093.00;;;;5072043;28;20124;-63
2024/01/08 07:45:25;;;;;;;2.70;2.05;;;;;-0.50;99078.00;;;;5070245;28;20045;-63
2024/01/08 07:47:52;;;;;;;2.72;2.45;;;;;-0.40;99100.00;;;;5071932;28;20047;-63
2024/01/08 07:50:19;;;;;;;2.92;2.42;;;;;-0.60;99085.00;;;;5072627;28;20051;-63
2024/01/08 07:52:46;;;;;;;3.65;2.65;;;;;-0.50;99094.00;;;;5073047;28;20560;-64
2024/01/08 07:55:13;;;;;;;3.10;2.40;;;;;-0.60;99099.00;;;;5054098;28;20053;-64
2024/01/08 07:57:42;;;;;;;3.60;2.45;;;;;-0.50;99107.00;;;;5071544;28;20045;-64
2024/01/08 08:00:11;;;;;;;3.40;2.58;;;;;-0.50;99110.00;;;;5071262;28;20068;-64
2024/01/08 08:02:39;;;;;;;3.78;2.58;;;;;-0.50;99098.00;;;;5071531;28;20049;-63
2024/01/08 08:05:06;;;;;;;2.33;2.13;;;;;-0.60;99102.00;;;;5071769;28;20044;-64
2024/01/08 08:07:33;;;;;;;2.67;2.35;;;;;-0.50;99099.00;;;;5071927;28;20045;-64
2024/01/08 08:09:59;;;;;;;6.20;2.70;;;;;-0.50;99100.00;;;;5072333;28;20101;-64
2024/01/08 08:12:27;;;;;;;6.35;2.70;;;;;-0.60;99105.00;;;;5072529;28;20044;-64
2024/01/08 08:14:53;;;;;;;2.63;2.13;;;;;-0.50;99107.00;;;;5072075;28;20048;-65
2024/01/08 08:17:20;;;;;;;2.30;2.05;;;;;-0.50;99113.00;;;;5075690;28;20045;-64
2024/01/08 08:19:47;;;;;;;3.03;2.50;;;;;-0.50;99107.00;;;;5074416;28;20048;-64
2024/01/08 08:22:14;;;;;;;3.67;2.50;;;;;-0.50;99113.00;;;;5090809;28;20063;-63
2024/01/08 08:24:41;;;;;;;3.70;2.88;;;;;-0.40;99111.00;;;;5097700;28;20108;-63
2024/01/08 08:27:09;;;;;;;3.25;2.70;;;;;-0.40;99109.00;;;;5097136;28;20078;-62
2024/01/08 08:29:41;;;;;;;2.47;2.28;;;;;-0.40;99122.00;;;;5080681;28;20035;-62
2024/01/08 08:32:09;;;;;;;2.50;2.30;;;;;-0.30;99118.00;;;;5098439;28;20025;-63
2024/01/08 08:34:36;;;;;;;3.38;2.63;;;;;-0.40;99133.00;;;;5096749;28;20056;-62
2024/01/08 08:37:03;;;;;;;3.47;2.75;;;;;-0.40;99122.00;;;;5088748;28;20060;-62
2024/01/08 08:39:31;;;;;;;2.63;2.40;;;;;-0.40;99123.00;;;;5064844;28;20048;-63
2024/01/08 08:42:00;;;;;;;2.33;2.03;;;;;-0.40;99130.00;;;;5076919;28;20072;-62
2024/01/08 08:44:27;;;;;;;2.47;2.28;;;;;-0.30;99136.00;;;;5074958;28;20068;-62
2024/01/08 08:46:53;;;;;;;3.13;2.30;;;;;-0.20;99140.00;;;;5075106;28;20071;-62
2024/01/08 08:49:20;;;;;;;3.00;2.45;;;;;-0.30;99139.00;;;;5075165;28;20500;-62
2024/01/08 08:51:47;;;;;;;3.17;2.75;;;;;-0.40;99144.00;;;;5075172;28;20056;-64
2024/01/08 08:54:14;;;;;;;4.00;2.80;;;;;-0.40;99144.00;;;;5074461;28;20102;-62
2024/01/08 08:56:40;;;;;;;3.30;2.40;;;;;-0.30;99147.00;;;;5074914;28;20531;-62
2024/01/08 08:59:07;;;;;;;2.75;2.25;;;;;-0.30;99146.00;;;;5073315;28;20070;-62
2024/01/08 09:01:34;;;;;;;2.33;2.00;;;;;-0.20;99148.00;;;;5073333;28;20059;-64
2024/01/08 09:04:01;;;;;;;3.63;2.00;;;;;-0.10;99154.00;;;;5073992;28;20083;-64
2024/01/08 09:06:30;;;;;;;3.90;2.90;;;;;-0.20;99148.00;;;;5074387;28;20139;-64
2024/01/08 09:08:57;;;;;;;3.10;2.80;;;;;-0.30;99150.00;;;;5074838;28;20192;-64
2024/01/08 09:11:23;;;;;;;4.70;2.38;;;;;-0.30;99148.00;;;;5074666;28;20044;-64
2024/01/08 09:13:51;;;;;;;4.85;2.47;;;;;-0.30;99155.00;;;;5072655;28;20044;-64
2024/01/08 09:16:18;;;;;;;4.47;2.78;;;;;-0.30;99151.00;;;;5073455;28;20036;-63
2024/01/08 09:18:47;;;;;;;4.35;3.08;;;;;-0.40;99153.00;;;;5074229;28;20036;-64
2024/01/08 09:21:14;;;;;;;6.28;3.15;;;;;-0.30;99155.00;;;;5074507;28;20539;-63
2024/01/08 09:23:41;;;;;;;3.33;2.78;;;;;-0.20;99152.00;;;;5073536;28;20048;-64
2024/01/08 09:26:08;;;;;;;4.32;3.42;;;;;-0.40;99159.00;;;;5073800;28;20048;-64
2024/01/08 09:28:35;;;;;;;4.70;3.33;;;;;-0.20;99162.00;;;;5072592;28;20055;-64
2024/01/08 09:31:03;;;;;;;3.20;2.45;;;;;-0.30;99158.00;;;;5072810;28;20071;-64
2024/01/08 09:33:30;;;;;;;5.18;3.05;;;;;-0.40;99159.00;;;;5073206;28;20052;-64
2024/01/08 09:35:58;;;;;;;4.78;3.53;;;;;-0.50;99169.00;;;;5056268;28;20048;-64
2024/01/08 09:38:25;;;;;;;5.85;3.50;;;;;-0.50;99165.00;;;;5073845;28;20036;-64
2024/01/08 09:40:52;;;;;;;5.38;2.92;;;;;-0.50;99170.00;;;;5073911;28;20408;-64
2024/01/08 09:43:28;;;;;;;4.78;3.15;;;;;-0.50;99176.00;;;;5072157;28;20540;-63
2024/01/08 09:46:05;;;;;;;5.90;3.45;;;;;-0.50;99171.00;;;;5073688;28;20118;-63
2024/01/08 09:48:34;;;;;;;4.63;3.25;;;;;-0.50;99175.00;;;;5073909;28;20064;-65
2024/01/08 09:51:01;;;;;;;6.40;3.00;;;;;-0.50;99169.00;;;;5073781;28;20048;-64
2024/01/08 09:53:29;;;;;;;5.75;3.10;;;;;-0.50;99169.00;;;;5073024;28;20048;-64
2024/01/08 09:55:57;;;;;;;4.32;3.10;;;;;-0.50;99167.00;;;;5073821;28;20045;-64
2024/01/08 09:58:24;;;;;;;5.43;3.75;;;;;-0.50;99168.00;;;;5073425;28;20037;-64
2024/01/08 10:00:51;;;;;;;3.63;3.20;;;;;-0.50;99159.00;;;;5072436;28;20123;-64
2024/01/08 10:03:18;;;;;;;6.07;3.10;;;;;-0.40;99166.00;;;;5073581;28;20540;-64
2024/01/08 10:05:46;;;;;;;4.65;3.00;;;;;-0.50;99167.00;;;;5072932;28;20050;-65
2024/01/08 10:08:12;;;;;;;5.13;3.13;;;;;-0.40;99168.00;;;;5055451;28;20135;-64
2024/01/08 10:10:39;;;;;;;5.03;2.70;;;;;-0.60;99173.00;;;;5073278;28;20165;-64
2024/01/08 10:13:09;;;;;;;3.88;2.78;;;;;-0.50;99165.00;;;;5073161;28;20076;-64
2024/01/08 10:15:36;;;;;;;5.70;2.88;;;;;-0.60;99167.00;;;;5073151;28;20072;-64
2024/01/08 10:18:08;;;;;;;3.60;2.38;;;;;-0.60;99155.00;;;;5075081;28;20432;-64
2024/01/08 10:20:35;;;;;;;4.63;3.00;;;;;-0.60;99173.00;;;;5076791;28;20098;-64
2024/01/08 10:23:07;;;;;;;5.15;3.40;;;;;-0.70;99164.00;;;;5077182;28;20098;-64
2024/01/08 10:25:36;;;;;;;6.43;3.78;;;;;-0.70;99167.00;;;;5073965;28;20102;-64
2024/01/08 10:28:03;;;;;;;3.88;2.95;;;;;-0.70;99159.00;;;;5072507;28;20044;-63
2024/01/08 10:30:29;;;;;;;4.88;3.35;;;;;-0.60;99159.00;;;;5072277;28;20045;-64
2024/01/08 10:32:59;;;;;;;4.47;2.95;;;;;-0.70;99156.00;;;;5073840;28;20118;-64
2024/01/08 10:35:29;;;;;;;4.38;3.28;;;;;-0.70;99163.00;;;;5073296;28;20131;-64
2024/01/08 10:38:01;;;;;;;3.63;3.05;;;;;-0.70;99193.00;;;;5072522;28;20083;-63
2024/01/08 10:40:28;;;;;;;7.03;3.30;;;;;-0.60;99167.00;;;;5071917;28;20044;-65
2024/01/08 10:42:55;;;;;;;4.75;3.08;;;;;-0.60;99164.00;;;;5072916;28;20552;-64
2024/01/08 10:45:22;;;;;;;6.25;3.13;;;;;-0.40;99159.00;;;;5072463;28;20051;-64
2024/01/08 10:47:56;;;;;;;9.18;3.72;;;;;-0.50;99158.00;;;;5071748;28;20048;-65
2024/01/08 10:50:24;;;;;;;5.28;3.58;;;;;-0.50;99163.00;;;;5073074;28;20132;-64
2024/01/08 10:52:56;;;;;;;4.65;3.05;;;;;-0.50;99169.00;;;;5073046;28;20076;-65
2024/01/08 10:55:23;;;;;;;5.03;3.25;;;;;-0.50;99163.00;;;;5072471;28;20500;-66
2024/01/08 10:57:58;;;;;;;4.53;3.03;;;;;-0.50;99166.00;;;;5073216;28;20127;-65
2024/01/08 11:00:27;;;;;;;5.18;3.75;;;;;-0.60;99168.00;;;;5072699;28;20049;-65
2024/01/08 11:02:54;;;;;;;5.32;3.42;;;;;-0.60;99168.00;;;;5071275;28;20053;-65
2024/01/08 11:05:21;;;;;;;5.45;3.30;;;;;-0.60;99155.00;;;;5072127;28;20193;-64
2024/01/08 11:07:50;;;;;;;6.47;3.67;;;;;-0.60;99170.00;;;;5072645;28;20044;-67
2024/01/08 11:10:21;;;;;;;5.20;3.55;;;;;-0.50;99169.00;;;;5071151;28;20056;-67
2024/01/08 11:12:54;;;;;;;5.40;3.55;;;;;-0.50;99161.00;;;;5071285;28;20053;-66
2024/01/08 11:15:24;;;;;;;5.10;3.00;;;;;-0.60;99171.00;;;;5071730;28;20047;-66
2024/01/08 11:17:55;;;;;;;4.50;3.40;;;;;-0.60;99171.00;;;;5054614;28;20398;-67
2024/01/08 11:20:40;;;;;;;6.03;3.83;;;;;-0.60;99154.00;;;;5071050;28;20036;-66
2024/01/08 11:23:39;;;;;;;6.53;3.70;;;;;-0.50;99148.00;;;;5071036;28;20142;-66
2024/01/08 11:26:20;;;;;;;4.75;3.38;;;;;-0.40;99148.00;;;;5054573;28;20052;-67
2024/01/08 11:29:03;;;;;;;6.10;3.50;;;;;-0.40;99147.00;;;;5071032;28;20535;-67
2024/01/08 11:31:58;;;;;;;5.93;3.20;;;;;-0.40;99147.00;;;;5072150;28;20052;-66
2024/01/08 11:34:56;;;;;;;6.20;3.30;;;;;-0.30;99145.00;;;;5070521;28;20066;-67
2024/01/08 11:37:31;;;;;;;6.05;3.33;;;;;-0.30;99145.00;;;;5070918;28;20551;-67
2024/01/08 11:40:17;;;;;;;7.55;3.50;;;;;-0.20;99138.00;;;;5054255;28;20080;-66
2024/01/08 11:42:49;;;;;;;4.95;3.40;;;;;-0.20;99149.00;;;;5072125;28;20047;-65
2024/01/08 11:45:19;;;;;;;4.70;3.72;;;;;-0.10;99140.00;;;;5071653;28;20079;-67
2024/01/08 11:47:46;;;;;;;5.10;3.15;;;;;0.10;99152.00;;;;5070790;28;20047;-66
2024/01/08 11:50:14;;;;;;;5.20;3.40;;;;;0.00;99146.00;;;;5075048;28;20127;-66
2024/01/08 11:52:41;;;;;;;6.50;3.28;;;;;0.10;99139.00;;;;5058380;28;20580;-65
2024/01/08 11:55:09;;;;;;;4.78;3.65;;;;;0.10;99139.00;;;;5075324;28;20132;-67
2024/01/08 11:57:36;;;;;;;4.32;3.33;;;;;0.20;99138.00;;;;5074720;28;20509;-65
2024/01/08 12:00:13;;;;;;;5.88;3.47;;;;;0.40;99145.00;;;;5075924;28;20044;-66
2024/01/08 12:02:39;;;;;;;4.80;3.22;;;;;0.40;99134.00;;;;5075728;28;20051;-67
2024/01/08 12:05:07;;;;;;;8.43;3.78;;;;;0.30;99143.00;;;;5077358;28;20049;-68
2024/01/08 12:07:37;;;;;;;6.10;3.45;;;;;0.30;99140.00;;;;5077851;28;20048;-67
2024/01/08 12:10:14;;;;;;;4.65;3.22;;;;;0.30;99151.00;;;;5074868;28;20131;-68
2024/01/08 12:12:41;;;;;;;5.68;3.28;;;;;0.10;99144.00;;;;5074691;28;20041;-67
2024/01/08 12:15:08;;;;;;;5.50;3.80;;;;;0.00;99149.00;;;;5073899;28;20068;-67
2024/01/08 12:17:35;;;;;;;5.10;3.70;;;;;0.10;99145.00;;;;5075773;28;20048;-65
2024/01/08 12:20:03;;;;;;;4.05;3.10;;;;;0.10;99151.00;;;;5074040;28;20049;-67
2024/01/08 12:22:30;;;;;;;5.22;3.90;;;;;0.10;99146.00;;;;5075424;28;20040;-67